Time;durP1;ratioP1;P1;durP2;ratioP2;P2;SDS_P1;SDS_P2;PMS_P1;PMS_P2;Temp;Humidity;BMP_temperature;BMP_pressure;BME280_temperature;BME280_humidity;BME280_pressure;Samples;Min_cycle;Max_cycle;Signal;HPM_P1;HPM_P2
2023/05/16 00:00:27;;;;;;;14.20;10.87;;;14.70;1.00;;;;;;5066683;28;20529;-60
2023/05/16 00:02:53;;;;;;;11.07;10.07;;;14.80;1.00;;;;;;5063354;28;20184;-60
2023/05/16 00:05:18;;;;;;;11.93;10.73;;;14.80;1.00;;;;;;5066867;28;20452;-60
2023/05/16 00:07:46;;;;;;;12.20;11.00;;;14.80;1.00;;;;;;5064484;28;20277;-59
2023/05/16 00:10:12;;;;;;;11.73;10.83;;;14.80;1.00;;;;;;5069574;28;20206;-58
2023/05/16 00:12:38;;;;;;;12.43;11.33;;;14.60;1.00;;;;;;5071129;28;20469;-58
2023/05/16 00:15:14;;;;;;;11.80;10.80;;;14.60;1.00;;;;;;5064893;28;20180;-58
2023/05/16 00:17:39;;;;;;;12.97;11.60;;;14.70;1.00;;;;;;5067231;28;20441;-60
2023/05/16 00:20:09;;;;;;;11.87;10.83;;;14.70;1.00;;;;;;5066435;28;20503;-58
2023/05/16 00:22:36;;;;;;;12.17;11.07;;;13.90;1.00;;;;;;5063110;28;20185;-59
2023/05/16 00:25:02;;;;;;;11.47;10.50;;;14.60;1.00;;;;;;5065653;28;20532;-59
2023/05/16 00:27:28;;;;;;;12.37;11.13;;;14.50;1.00;;;;;;5059848;28;20966;-59
2023/05/16 00:29:55;;;;;;;12.50;11.20;;;14.60;1.00;;;;;;5061684;28;20485;-61
2023/05/16 00:32:20;;;;;;;11.97;10.87;;;14.50;1.00;;;;;;5072728;28;20269;-58
2023/05/16 00:34:46;;;;;;;12.27;11.27;;;14.40;1.00;;;;;;5060289;28;20446;-58
2023/05/16 00:37:12;;;;;;;12.53;11.33;;;14.30;1.00;;;;;;5064960;28;20257;-60
2023/05/16 00:39:38;;;;;;;13.60;12.27;;;14.30;1.00;;;;;;5061424;28;20185;-59
2023/05/16 00:42:03;;;;;;;12.80;11.60;;;14.30;1.00;;;;;;5063734;28;20457;-61
2023/05/16 00:44:29;;;;;;;14.03;12.33;;;14.40;1.00;;;;;;5060308;28;20309;-60
2023/05/16 00:46:56;;;;;;;13.90;12.70;;;14.40;1.00;;;;;;5065527;28;20665;-58
2023/05/16 00:49:21;;;;;;;12.27;11.07;;;14.30;1.00;;;;;;5063962;28;20457;-58
2023/05/16 00:51:47;;;;;;;12.70;11.57;;;14.30;1.00;;;;;;5063853;28;20521;-59
2023/05/16 00:54:13;;;;;;;12.57;11.40;;;14.30;1.00;;;;;;5063205;28;20214;-59
2023/05/16 00:56:39;;;;;;;13.27;11.97;;;14.20;1.00;;;;;;5059709;28;20222;-60
2023/05/16 00:59:05;;;;;;;13.03;11.73;;;14.30;1.00;;;;;;5066647;28;20446;-59
2023/05/16 01:01:32;;;;;;;12.40;11.30;;;14.30;1.00;;;;;;5064022;28;20450;-58
2023/05/16 01:03:59;;;;;;;13.40;12.30;;;14.20;1.00;;;;;;5064275;28;20188;-58
2023/05/16 01:06:25;;;;;;;12.17;11.03;;;14.20;1.00;;;;;;5065396;28;20504;-59
2023/05/16 01:08:51;;;;;;;12.93;11.70;;;14.20;1.00;;;;;;5062246;28;20446;-59
2023/05/16 01:11:45;;;;;;;14.43;13.10;;;14.20;1.00;;;;;;5060988;28;21077;-59
2023/05/16 01:14:19;;;;;;;14.60;13.20;;;14.30;1.00;;;;;;5063792;28;20184;-59
2023/05/16 01:17:10;;;;;;;13.47;12.17;;;14.20;1.00;;;;;;5059652;28;20998;-58
2023/05/16 01:19:54;;;;;;;13.67;12.30;;;14.20;1.00;;;;;;5062250;28;20437;-59
2023/05/16 01:22:50;;;;;;;12.87;11.67;;;14.20;1.00;;;;;;5062872;28;20939;-60
2023/05/16 01:25:16;;;;;;;13.00;11.90;;;14.20;1.00;;;;;;5061447;28;20947;-60
2023/05/16 01:27:43;;;;;;;13.27;12.00;;;14.20;1.00;;;;;;5057366;28;20504;-59
2023/05/16 01:30:17;;;;;;;13.40;12.00;;;14.10;1.00;;;;;;5065350;28;20578;-59
2023/05/16 01:32:42;;;;;;;13.87;12.53;;;14.10;1.00;;;;;;5061526;28;20466;-58
2023/05/16 01:35:11;;;;;;;14.20;12.87;;;14.10;1.00;;;;;;5059509;28;20438;-59
2023/05/16 01:38:18;;;;;;;13.27;12.07;;;14.10;1.00;;;;;;5062069;28;20210;-59
2023/05/16 01:41:03;;;;;;;14.33;12.83;;;14.00;1.00;;;;;;5047227;28;20449;-60
2023/05/16 01:43:33;;;;;;;14.03;12.77;;;14.00;1.00;;;;;;5066142;28;20446;-58
2023/05/16 01:46:10;;;;;;;12.40;11.30;;;14.10;1.00;;;;;;5066188;28;20530;-58
2023/05/16 01:49:04;;;;;;;13.40;11.77;;;14.00;1.00;;;;;;5063671;28;20450;-58
2023/05/16 01:51:34;;;;;;;12.63;11.43;;;14.00;1.00;;;;;;5058962;28;20457;-59
2023/05/16 01:54:09;;;;;;;14.57;13.13;;;13.90;1.00;;;;;;5061445;28;20533;-58
2023/05/16 01:56:36;;;;;;;12.30;11.23;;;14.00;1.00;;;;;;5059772;28;20470;-59
2023/05/16 01:59:03;;;;;;;15.17;13.53;;;14.10;1.00;;;;;;5061722;28;20449;-59
2023/05/16 02:01:30;;;;;;;14.17;12.87;;;14.20;1.00;;;;;;5061112;28;20446;-58
2023/05/16 02:03:57;;;;;;;15.10;13.60;;;14.00;1.00;;;;;;5060419;28;20524;-59
2023/05/16 02:06:24;;;;;;;13.13;11.77;;;14.00;1.00;;;;;;5064826;28;20503;-57
2023/05/16 02:08:50;;;;;;;14.30;12.83;;;14.00;1.00;;;;;;5062662;28;20831;-59
2023/05/16 02:11:16;;;;;;;12.43;11.33;;;14.00;1.00;;;;;;5067111;28;20506;-59
2023/05/16 02:13:41;;;;;;;15.80;14.37;;;14.00;1.00;;;;;;5068702;28;20472;-59
2023/05/16 02:16:10;;;;;;;14.63;13.23;;;14.00;1.00;;;;;;5063859;28;20176;-58
2023/05/16 02:18:35;;;;;;;14.57;13.37;;;14.00;1.00;;;;;;5069448;28;20173;-59
2023/05/16 02:21:01;;;;;;;17.03;14.80;;;13.90;1.00;;;;;;5063351;28;20453;-58
2023/05/16 02:23:27;;;;;;;15.20;13.80;;;14.00;1.00;;;;;;5061757;28;20192;-58
2023/05/16 02:25:52;;;;;;;15.73;14.10;;;13.90;1.00;;;;;;5064870;28;20256;-59
2023/05/16 02:28:18;;;;;;;17.50;13.70;;;13.80;1.00;;;;;;5067431;28;20196;-58
2023/05/16 02:30:43;;;;;;;14.63;13.23;;;13.80;1.00;;;;;;5070582;28;20188;-60
2023/05/16 02:33:10;;;;;;;17.30;13.67;;;13.70;1.00;;;;;;5066604;28;20212;-57
2023/05/16 02:35:35;;;;;;;15.47;13.90;;;13.70;1.00;;;;;;5066612;28;20191;-58
2023/05/16 02:38:01;;;;;;;15.30;13.90;;;13.70;1.00;;;;;;5066051;28;20438;-59
2023/05/16 02:40:27;;;;;;;14.63;13.30;;;13.80;1.00;;;;;;5066918;28;20242;-58
2023/05/16 02:42:52;;;;;;;13.93;12.63;;;13.70;1.00;;;;;;5065562;28;20192;-58
2023/05/16 02:45:18;;;;;;;15.30;13.90;;;13.80;1.00;;;;;;5061293;28;20202;-58
2023/05/16 02:47:43;;;;;;;16.27;14.77;;;13.80;1.00;;;;;;5061347;28;20186;-58
2023/05/16 02:50:09;;;;;;;15.73;13.60;;;13.80;1.00;;;;;;5069317;28;20587;-57
2023/05/16 02:52:35;;;;;;;15.53;13.97;;;13.90;1.00;;;;;;5063243;28;20223;-58
2023/05/16 02:55:01;;;;;;;15.53;14.13;;;13.90;1.00;;;;;;5066942;28;20494;-57
2023/05/16 02:57:26;;;;;;;16.13;14.50;;;14.10;1.00;;;;;;5065966;28;20326;-58
2023/05/16 02:59:52;;;;;;;15.90;14.50;;;14.10;1.00;;;;;;5063068;28;20184;-59
2023/05/16 03:02:18;;;;;;;15.07;13.67;;;14.10;1.00;;;;;;5064730;28;20449;-59
2023/05/16 03:04:43;;;;;;;16.50;15.00;;;14.20;1.00;;;;;;5061250;28;20188;-60
2023/05/16 03:07:09;;;;;;;15.50;14.10;;;14.30;1.00;;;;;;5067774;28;20270;-58
2023/05/16 03:09:35;;;;;;;15.63;13.97;;;14.20;1.00;;;;;;5067469;28;20521;-59
2023/05/16 03:12:00;;;;;;;16.60;14.87;;;14.30;1.00;;;;;;5066698;28;20200;-59
2023/05/16 03:14:26;;;;;;;15.00;13.33;;;14.30;1.00;;;;;;5062138;28;20241;-57
2023/05/16 03:16:51;;;;;;;16.40;14.80;;;14.50;1.00;;;;;;5060335;28;20184;-59
2023/05/16 03:19:17;;;;;;;15.90;14.40;;;14.40;1.00;;;;;;5065353;28;20569;-59
2023/05/16 03:21:42;;;;;;;16.90;15.20;;;14.30;1.00;;;;;;5063746;28;20188;-59
2023/05/16 03:24:08;;;;;;;15.93;14.20;;;14.20;1.00;;;;;;5062644;28;20181;-58
2023/05/16 03:26:34;;;;;;;14.80;13.50;;;14.30;1.00;;;;;;5064830;28;20188;-59
2023/05/16 03:28:59;;;;;;;16.90;15.17;;;14.30;1.00;;;;;;5065877;28;20183;-58
2023/05/16 03:31:25;;;;;;;16.17;14.70;;;14.40;1.00;;;;;;5063731;28;20195;-60
2023/05/16 03:33:50;;;;;;;16.17;14.67;;;14.40;1.00;;;;;;5064468;28;20250;-59
2023/05/16 03:36:16;;;;;;;15.70;14.30;;;14.50;1.00;;;;;;5061679;28;20579;-59
2023/05/16 03:38:42;;;;;;;17.40;15.10;;;14.40;1.00;;;;;;5064916;28;20187;-58
2023/05/16 03:41:07;;;;;;;17.53;15.77;;;14.30;1.00;;;;;;5063085;28;20275;-60
2023/05/16 03:43:33;;;;;;;18.50;16.63;;;14.30;1.00;;;;;;5065741;28;20192;-58
2023/05/16 03:46:00;;;;;;;16.63;15.10;;;14.50;1.00;;;;;;5067851;28;20188;-58
2023/05/16 03:48:26;;;;;;;17.43;15.67;;;14.40;1.00;;;;;;5065868;28;20974;-58
2023/05/16 03:50:52;;;;;;;16.80;15.20;;;14.40;1.00;;;;;;5061891;28;20470;-58
2023/05/16 03:53:17;;;;;;;16.13;14.63;;;14.40;1.00;;;;;;5066037;28;20681;-59
2023/05/16 03:55:43;;;;;;;17.87;16.07;;;14.50;1.00;;;;;;5063704;28;20277;-58
2023/05/16 03:58:08;;;;;;;17.07;15.37;;;14.60;1.00;;;;;;5064744;28;20227;-58
2023/05/16 04:00:35;;;;;;;17.10;15.40;;;14.60;1.00;;;;;;5065619;28;20583;-59
2023/05/16 04:03:01;;;;;;;16.63;14.93;;;14.50;1.00;;;;;;5065990;28;20190;-59
2023/05/16 04:05:28;;;;;;;17.77;15.90;;;14.60;1.00;;;;;;5061050;28;20445;-59
2023/05/16 04:07:53;;;;;;;17.63;15.90;;;14.50;1.00;;;;;;5064983;28;20639;-59
2023/05/16 04:10:19;;;;;;;15.70;14.20;;;14.60;1.00;;;;;;5064280;28;20553;-60
2023/05/16 04:12:45;;;;;;;17.20;15.57;;;14.60;1.00;;;;;;5066040;28;20208;-60
2023/05/16 04:15:10;;;;;;;17.03;15.43;;;14.80;1.00;;;;;;5065565;28;20693;-60
2023/05/16 04:17:36;;;;;;;17.87;16.07;;;14.80;1.00;;;;;;5064527;28;20196;-59
2023/05/16 04:20:03;;;;;;;17.60;15.80;;;14.80;1.00;;;;;;5064640;28;20184;-58
2023/05/16 04:22:29;;;;;;;16.53;14.73;;;14.80;1.00;;;;;;5064355;28;20199;-59
2023/05/16 04:24:55;;;;;;;16.97;15.00;;;14.70;1.00;;;;;;5069025;28;20461;-57
2023/05/16 04:27:22;;;;;;;16.17;14.73;;;14.70;1.00;;;;;;5064909;28;20454;-57
2023/05/16 04:29:48;;;;;;;18.30;15.40;;;14.70;1.00;;;;;;5065585;28;20464;-59
2023/05/16 04:32:14;;;;;;;18.40;15.60;;;14.60;1.00;;;;;;5063870;28;20979;-59
2023/05/16 04:34:44;;;;;;;16.83;15.13;;;14.50;1.00;;;;;;5061658;28;20790;-58
2023/05/16 04:37:10;;;;;;;18.63;16.20;;;14.60;1.00;;;;;;5065008;28;20517;-58
2023/05/16 04:39:36;;;;;;;17.10;15.60;;;14.60;1.00;;;;;;5063404;28;20453;-58
2023/05/16 04:42:02;;;;;;;16.67;15.10;;;14.60;1.00;;;;;;5063658;28;20202;-57
2023/05/16 04:44:27;;;;;;;16.80;15.30;;;14.70;1.00;;;;;;5071517;28;20473;-59
2023/05/16 04:46:54;;;;;;;17.27;15.40;;;14.70;1.00;;;;;;5065515;28;20650;-58
2023/05/16 04:49:20;;;;;;;16.00;14.50;;;14.60;1.00;;;;;;5064446;28;20192;-59
2023/05/16 04:51:47;;;;;;;17.63;15.93;;;14.60;1.00;;;;;;5066770;28;20468;-59
2023/05/16 04:54:12;;;;;;;17.40;15.70;;;14.40;1.00;;;;;;5061416;28;20541;-59
2023/05/16 04:56:38;;;;;;;16.57;14.97;;;14.40;1.00;;;;;;5061343;28;20573;-58
2023/05/16 04:59:04;;;;;;;16.27;14.57;;;14.50;1.00;;;;;;5060043;28;20237;-59
2023/05/16 05:01:29;;;;;;;17.43;15.50;;;14.50;1.00;;;;;;5063975;28;20195;-59
2023/05/16 05:03:55;;;;;;;17.00;15.33;;;14.50;1.00;;;;;;5064978;28;20187;-58
2023/05/16 05:06:21;;;;;;;18.47;16.27;;;14.40;1.00;;;;;;5064230;28;20220;-59
2023/05/16 05:08:47;;;;;;;16.10;14.47;;;14.50;1.00;;;;;;5066657;28;20190;-60
2023/05/16 05:11:13;;;;;;;18.63;16.73;;;14.40;1.00;;;;;;5060986;28;20442;-58
2023/05/16 05:13:38;;;;;;;20.47;17.80;;;14.40;1.00;;;;;;5060295;28;20480;-59
2023/05/16 05:16:04;;;;;;;18.50;16.73;;;14.40;1.00;;;;;;5062615;28;20188;-60
2023/05/16 05:18:30;;;;;;;20.07;17.17;;;14.40;1.00;;;;;;5061742;28;20200;-59
2023/05/16 05:20:57;;;;;;;22.33;18.03;;;14.30;1.00;;;;;;5064396;28;20457;-59
2023/05/16 05:23:22;;;;;;;19.10;17.10;;;14.00;1.00;;;;;;5058591;28;20195;-58
2023/05/16 05:25:48;;;;;;;20.67;18.47;;;14.00;1.00;;;;;;5064141;28;20503;-59
2023/05/16 05:28:14;;;;;;;22.77;20.37;;;13.90;1.00;;;;;;5063500;28;20245;-60
2023/05/16 05:30:40;;;;;;;21.20;19.00;;;14.00;1.00;;;;;;5060791;28;21014;-59
2023/05/16 05:33:05;;;;;;;23.47;18.50;;;13.90;1.00;;;;;;5056596;28;21138;-58
2023/05/16 05:35:31;;;;;;;20.60;18.50;;;14.10;1.00;;;;;;5061896;28;20191;-59
2023/05/16 05:37:56;;;;;;;21.87;19.60;;;14.10;1.00;;;;;;5061752;28;20259;-58
2023/05/16 05:40:22;;;;;;;25.27;19.13;;;14.10;1.00;;;;;;5053455;28;20189;-58
2023/05/16 05:42:48;;;;;;;20.67;18.23;;;14.00;1.00;;;;;;5057467;28;20183;-60
2023/05/16 05:45:14;;;;;;;25.07;20.23;;;13.80;1.00;;;;;;5059853;28;20328;-59
2023/05/16 05:47:41;;;;;;;22.10;18.37;;;13.70;1.00;;;;;;5066456;28;20274;-56
2023/05/16 05:50:07;;;;;;;23.67;19.17;;;13.90;1.00;;;;;;5070692;28;20452;-58
2023/05/16 05:52:33;;;;;;;21.33;19.00;;;13.90;1.00;;;;;;5068230;28;20788;-56
2023/05/16 05:54:58;;;;;;;22.10;19.90;;;13.80;1.00;;;;;;5064695;28;20445;-57
2023/05/16 05:57:24;;;;;;;21.93;19.70;;;13.90;1.00;;;;;;5073964;28;20223;-57
2023/05/16 05:59:50;;;;;;;21.73;19.53;;;13.80;1.00;;;;;;5067721;28;20658;-58
2023/05/16 06:02:16;;;;;;;25.17;19.97;;;13.90;1.00;;;;;;5076068;28;20478;-57
2023/05/16 06:04:42;;;;;;;20.57;18.47;;;13.90;1.00;;;;;;5080183;28;20217;-57
2023/05/16 06:07:07;;;;;;;23.50;19.50;;;13.80;1.00;;;;;;5071283;28;20810;-58
2023/05/16 06:09:33;;;;;;;20.77;18.53;;;13.70;1.00;;;;;;5071793;28;20249;-59
2023/05/16 06:11:59;;;;;;;23.57;20.47;;;13.50;1.00;;;;;;5071582;28;20204;-58
2023/05/16 06:14:24;;;;;;;25.57;21.43;;;13.50;1.00;;;;;;5072616;28;20271;-58
2023/05/16 06:16:50;;;;;;;27.20;22.40;;;13.40;1.00;;;;;;5064206;28;20229;-59
2023/05/16 06:19:17;;;;;;;25.30;22.47;;;13.30;1.00;;;;;;5067214;28;20180;-58
2023/05/16 06:21:43;;;;;;;25.40;22.67;;;13.30;1.00;;;;;;5066983;28;20197;-57
2023/05/16 06:24:09;;;;;;;26.57;22.40;;;13.30;1.00;;;;;;5071695;28;20442;-57
2023/05/16 06:26:35;;;;;;;27.77;23.93;;;13.20;1.00;;;;;;5065796;28;20187;-56
2023/05/16 06:29:01;;;;;;;30.23;26.73;;;13.10;1.00;;;;;;5078351;28;20477;-56
2023/05/16 06:31:26;;;;;;;31.57;26.83;;;12.90;1.00;;;;;;5074185;28;20480;-57
2023/05/16 06:33:52;;;;;;;31.93;25.20;;;12.80;1.00;;;;;;5075633;28;20496;-58
2023/05/16 06:36:18;;;;;;;31.20;26.60;;;12.80;1.00;;;;;;5074849;28;20717;-58
2023/05/16 06:38:44;;;;;;;32.57;28.00;;;13.00;1.00;;;;;;5077826;28;20183;-57
2023/05/16 06:41:10;;;;;;;33.70;28.13;;;12.90;1.00;;;;;;5068874;28;20259;-56
2023/05/16 06:43:35;;;;;;;34.37;27.47;;;12.90;1.00;;;;;;5081112;28;20449;-56
2023/05/16 06:46:02;;;;;;;34.50;29.13;;;13.00;1.00;;;;;;5077364;28;20446;-57
2023/05/16 06:48:28;;;;;;;36.17;28.87;;;13.10;1.00;;;;;;5076877;28;20260;-57
2023/05/16 06:50:54;;;;;;;39.80;30.53;;;13.10;1.00;;;;;;5076922;28;21011;-56
2023/05/16 06:53:19;;;;;;;36.63;29.90;;;12.90;1.00;;;;;;5076259;28;20468;-57
2023/05/16 06:55:46;;;;;;;38.20;30.90;;;12.80;1.00;;;;;;5074813;28;20183;-57
2023/05/16 06:58:11;;;;;;;37.53;29.73;;;12.90;1.00;;;;;;5075134;28;20310;-57
2023/05/16 07:00:37;;;;;;;35.70;29.37;;;12.90;1.00;;;;;;5074896;28;20991;-56
2023/05/16 07:03:03;;;;;;;32.67;25.80;;;12.80;1.00;;;;;;5073706;28;20191;-58
2023/05/16 07:05:29;;;;;;;35.20;25.53;;;12.80;1.00;;;;;;5076159;28;20199;-56
2023/05/16 07:07:55;;;;;;;30.20;24.37;;;12.80;1.00;;;;;;5076622;28;20453;-57
2023/05/16 07:10:21;;;;;;;32.90;23.60;;;12.90;1.00;;;;;;5077275;28;20207;-56
2023/05/16 07:12:47;;;;;;;27.97;21.73;;;13.00;1.00;;;;;;5078263;28;20332;-56
2023/05/16 07:15:13;;;;;;;25.23;22.07;;;12.90;1.00;;;;;;5077238;28;20450;-56
2023/05/16 07:17:39;;;;;;;23.90;21.40;;;12.90;1.00;;;;;;5070280;28;21015;-53
2023/05/16 07:20:06;;;;;;;23.80;21.00;;;12.90;1.00;;;;;;5069624;28;20431;-53
2023/05/16 07:22:32;;;;;;;26.03;20.40;;;12.70;1.00;;;;;;5071482;28;20450;-54
2023/05/16 07:24:59;;;;;;;22.97;20.40;;;12.60;1.00;;;;;;5080405;28;20460;-54
2023/05/16 07:27:26;;;;;;;23.40;20.90;;;12.50;1.00;;;;;;5075676;28;20286;-55
2023/05/16 07:29:52;;;;;;;23.70;20.33;;;12.40;1.00;;;;;;5080034;28;21077;-53
2023/05/16 07:32:17;;;;;;;25.50;18.87;;;12.30;1.00;;;;;;5076221;28;20534;-55
2023/05/16 07:34:43;;;;;;;27.80;19.43;;;12.30;1.00;;;;;;5075728;28;20201;-53
2023/05/16 07:37:11;;;;;;;24.13;19.43;;;12.50;1.00;;;;;;5074566;28;20187;-54
2023/05/16 07:39:38;;;;;;;22.20;19.33;;;12.40;1.00;;;;;;5073598;28;20205;-54
2023/05/16 07:42:05;;;;;;;23.30;18.67;;;12.40;1.00;;;;;;5076800;28;20448;-55
2023/05/16 07:44:31;;;;;;;22.30;18.60;;;12.40;1.00;;;;;;5077314;28;20445;-54
2023/05/16 07:46:56;;;;;;;21.27;19.07;;;12.50;1.00;;;;;;5078868;28;20457;-54
2023/05/16 07:49:22;;;;;;;22.67;18.10;;;12.60;1.00;;;;;;5080624;28;20588;-56
2023/05/16 07:51:47;;;;;;;21.77;16.70;;;12.60;1.00;;;;;;5073522;28;20199;-55
2023/05/16 07:54:13;;;;;;;16.63;14.90;;;12.60;1.00;;;;;;5075319;28;20214;-54
2023/05/16 07:56:38;;;;;;;20.13;16.53;;;12.50;1.00;;;;;;5068075;28;20220;-52
2023/05/16 07:59:04;;;;;;;17.60;15.80;;;12.50;1.00;;;;;;5075687;28;20368;-53
2023/05/16 08:01:30;;;;;;;18.30;16.30;;;12.30;1.00;;;;;;5073754;28;20200;-53
2023/05/16 08:03:56;;;;;;;19.27;16.43;;;12.40;1.00;;;;;;5076769;28;20191;-53
2023/05/16 08:06:21;;;;;;;18.60;16.37;;;12.50;1.00;;;;;;5075817;28;20191;-54
2023/05/16 08:08:47;;;;;;;21.67;15.93;;;12.60;1.00;;;;;;5077417;28;20238;-55
2023/05/16 08:11:12;;;;;;;19.90;17.80;;;12.80;1.00;;;;;;5080126;28;20222;-55
2023/05/16 08:13:38;;;;;;;18.10;15.93;;;12.70;1.00;;;;;;5071199;28;20287;-54
2023/05/16 08:16:04;;;;;;;16.60;14.80;;;12.70;1.00;;;;;;5071892;28;20270;-53
2023/05/16 08:18:30;;;;;;;17.40;15.60;;;12.70;1.00;;;;;;5077559;28;20660;-55
2023/05/16 08:20:55;;;;;;;22.90;16.10;;;12.60;1.00;;;;;;5071498;28;20499;-56
2023/05/16 08:23:21;;;;;;;18.83;15.70;;;12.70;1.00;;;;;;5074666;28;20239;-54
2023/05/16 08:25:46;;;;;;;21.57;15.77;;;12.80;1.00;;;;;;5075005;28;20187;-54
2023/05/16 08:28:12;;;;;;;17.27;15.40;;;12.70;1.00;;;;;;5068316;28;20184;-55
2023/05/16 08:30:37;;;;;;;17.77;14.63;;;12.70;1.00;;;;;;5074261;28;20188;-54
2023/05/16 08:33:05;;;;;;;18.60;15.73;;;12.70;1.00;;;;;;5080089;28;20211;-54
2023/05/16 08:35:31;;;;;;;16.37;14.50;;;12.70;1.00;;;;;;5065023;28;20642;-55
2023/05/16 08:37:57;;;;;;;16.63;14.80;;;12.80;1.00;;;;;;5075925;28;20499;-54
2023/05/16 08:40:25;;;;;;;15.00;13.40;;;12.70;1.00;;;;;;5074627;28;20440;-54
2023/05/16 08:42:52;;;;;;;16.50;14.23;;;12.60;1.00;;;;;;5073303;28;20191;-53
2023/05/16 08:45:18;;;;;;;15.40;13.80;;;12.70;1.00;;;;;;5069783;28;20966;-54
2023/05/16 08:47:46;;;;;;;16.07;14.50;;;12.80;1.00;;;;;;5064726;28;20476;-55
2023/05/16 08:50:14;;;;;;;19.43;14.80;;;12.80;1.00;;;;;;5069864;28;20187;-55
2023/05/16 08:52:42;;;;;;;18.63;15.23;;;12.80;1.00;;;;;;5074858;28;20461;-54
2023/05/16 08:55:10;;;;;;;15.33;13.80;;;12.70;1.00;;;;;;5072810;28;21050;-55
2023/05/16 08:57:36;;;;;;;14.87;13.40;;;12.60;1.00;;;;;;5067806;28;20977;-54
2023/05/16 09:00:10;;;;;;;15.40;13.77;;;12.50;1.00;;;;;;5072172;28;20456;-55
2023/05/16 09:02:38;;;;;;;15.30;13.70;;;12.50;1.00;;;;;;5068138;28;20453;-55
2023/05/16 09:05:05;;;;;;;14.87;13.47;;;12.50;1.00;;;;;;5066920;28;20450;-55
2023/05/16 09:07:30;;;;;;;15.30;13.27;;;12.60;1.00;;;;;;5075527;28;20450;-55
2023/05/16 09:09:56;;;;;;;15.60;13.97;;;12.60;1.00;;;;;;5073979;28;20465;-55
2023/05/16 09:12:22;;;;;;;15.93;14.33;;;12.70;1.00;;;;;;5065802;28;20269;-54
2023/05/16 09:14:47;;;;;;;14.53;13.10;;;12.70;1.00;;;;;;5066742;28;20752;-53
2023/05/16 09:17:14;;;;;;;18.37;14.80;;;12.70;1.00;;;;;;5077185;28;20234;-55
2023/05/16 09:19:41;;;;;;;18.50;14.03;;;12.60;1.00;;;;;;5074121;28;20707;-55
2023/05/16 09:22:14;;;;;;;16.10;12.93;;;12.60;1.00;;;;;;5073467;28;20447;-55
2023/05/16 09:24:44;;;;;;;14.33;13.00;;;12.60;1.00;;;;;;5069425;28;20468;-55
2023/05/16 09:27:11;;;;;;;14.17;12.13;;;12.70;1.00;;;;;;5066877;28;20455;-55
2023/05/16 09:29:40;;;;;;;15.43;12.97;;;12.70;1.00;;;;;;5066722;28;20530;-55
2023/05/16 09:32:13;;;;;;;16.73;13.07;;;12.80;1.00;;;;;;5071172;28;21264;-55
2023/05/16 09:34:48;;;;;;;14.70;12.37;;;12.80;1.00;;;;;;5069562;28;20442;-54
2023/05/16 09:37:20;;;;;;;16.03;13.77;;;12.90;1.00;;;;;;5076319;28;20453;-53
2023/05/16 09:39:47;;;;;;;14.23;12.83;;;13.00;1.00;;;;;;5065409;28;20477;-55
2023/05/16 09:42:14;;;;;;;13.60;12.20;;;13.10;1.00;;;;;;5067974;28;20454;-54
2023/05/16 09:44:44;;;;;;;13.23;11.93;;;13.30;1.00;;;;;;5067665;28;20452;-54
2023/05/16 09:47:10;;;;;;;14.03;12.07;;;13.30;1.00;;;;;;5064940;28;20597;-56
2023/05/16 09:49:36;;;;;;;12.97;11.13;;;13.40;1.00;;;;;;5069490;28;20531;-57
2023/05/16 09:52:03;;;;;;;13.37;12.07;;;13.40;1.00;;;;;;5072583;28;20201;-54
2023/05/16 09:54:33;;;;;;;12.10;11.03;;;13.40;1.00;;;;;;5072930;28;20947;-54
2023/05/16 09:56:59;;;;;;;14.43;11.60;;;13.30;1.00;;;;;;5067226;28;20481;-55
2023/05/16 09:59:27;;;;;;;15.13;11.73;;;13.30;1.00;;;;;;5082631;28;20477;-55
2023/05/16 10:01:54;;;;;;;18.10;11.03;;;13.30;1.00;;;;;;5071129;28;20805;-57
2023/05/16 10:04:19;;;;;;;12.03;10.83;;;13.30;1.00;;;;;;5073606;28;20484;-56
2023/05/16 10:06:47;;;;;;;14.43;10.77;;;13.30;1.00;;;;;;5072290;28;20569;-55
2023/05/16 10:09:15;;;;;;;11.50;10.40;;;13.20;1.00;;;;;;5064823;28;20212;-56
2023/05/16 10:11:42;;;;;;;11.80;10.60;;;13.20;1.00;;;;;;5078543;28;20456;-54
2023/05/16 10:14:10;;;;;;;11.23;10.13;;;13.50;1.00;;;;;;5072680;28;20480;-55
2023/05/16 10:16:36;;;;;;;11.23;10.00;;;13.60;1.00;;;;;;5079872;28;20449;-55
2023/05/16 10:19:02;;;;;;;13.23;9.40;;;13.60;1.00;;;;;;5068550;28;20468;-54
2023/05/16 10:21:31;;;;;;;11.47;10.30;;;13.60;1.00;;;;;;5071871;28;22182;-54
2023/05/16 10:24:02;;;;;;;10.00;9.10;;;13.80;1.00;;;;;;5068213;28;20878;-54
2023/05/16 10:26:28;;;;;;;10.47;9.47;;;13.80;1.00;;;;;;5064955;28;20450;-54
2023/05/16 10:28:55;;;;;;;10.57;9.57;;;13.80;1.00;;;;;;5078227;28;20442;-54
2023/05/16 10:31:21;;;;;;;10.67;9.57;;;14.00;1.00;;;;;;5067917;28;20480;-55
2023/05/16 10:33:47;;;;;;;11.90;10.20;;;14.00;1.00;;;;;;5074150;28;20461;-55
2023/05/16 10:36:17;;;;;;;11.60;10.50;;;14.20;1.00;;;;;;5073925;28;20819;-55
2023/05/16 10:38:45;;;;;;;11.70;10.07;;;14.10;1.00;;;;;;5079651;28;20195;-55
2023/05/16 10:41:11;;;;;;;11.17;10.27;;;13.90;1.00;;;;;;5072240;28;20445;-54
2023/05/16 10:43:36;;;;;;;13.97;11.40;;;13.70;1.00;;;;;;5069404;28;20535;-55
2023/05/16 10:46:04;;;;;;;10.60;9.60;;;13.70;1.00;;;;;;5078454;28;20485;-55
2023/05/16 10:48:34;;;;;;;10.43;9.33;;;13.70;1.00;;;;;;5072666;28;20271;-54
2023/05/16 10:51:02;;;;;;;14.40;10.00;;;13.60;1.00;;;;;;5071953;28;20822;-54
2023/05/16 10:53:29;;;;;;;11.13;10.03;;;13.60;1.00;;;;;;5076478;28;20473;-55
2023/05/16 10:55:58;;;;;;;10.07;9.03;;;13.60;1.00;;;;;;5078155;28;20449;-56
2023/05/16 10:58:36;;;;;;;10.47;9.43;;;13.70;1.00;;;;;;5076112;28;20458;-54
2023/05/16 11:01:15;;;;;;;10.50;8.03;;;13.70;1.00;;;;;;5072476;28;20441;-55
2023/05/16 11:03:56;;;;;;;9.20;8.30;;;13.60;1.00;;;;;;5080776;28;20448;-55
2023/05/16 11:06:24;;;;;;;11.67;8.50;;;13.70;1.00;;;;;;5069636;28;20545;-55
2023/05/16 11:11:48;;;;;;;10.17;8.30;;;14.50;1.00;;;;;;5076472;28;20440;-56
2023/05/16 11:14:32;;;;;;;13.10;6.83;;;14.60;1.00;;;;;;5074662;28;20864;-56
2023/05/16 11:17:01;;;;;;;7.33;6.57;;;14.90;1.00;;;;;;5068709;28;20442;-55
2023/05/16 11:19:34;;;;;;;7.47;6.70;;;15.10;1.00;;;;;;5071007;28;20437;-54
2023/05/16 11:22:10;;;;;;;7.47;6.70;;;15.10;1.00;;;;;;5063466;28;20529;-55
2023/05/16 11:24:38;;;;;;;8.10;7.23;;;15.10;1.00;;;;;;5067887;28;20481;-56
2023/05/16 11:27:04;;;;;;;7.60;6.37;;;15.10;1.00;;;;;;5069269;28;20457;-55
2023/05/16 11:29:33;;;;;;;7.03;6.37;;;15.10;1.00;;;;;;5070702;28;20845;-56
2023/05/16 11:31:59;;;;;;;7.30;6.70;;;14.80;1.00;;;;;;5074624;28;21022;-55
2023/05/16 11:34:26;;;;;;;7.10;6.37;;;14.70;1.00;;;;;;5072125;28;20811;-56
2023/05/16 11:36:51;;;;;;;7.10;6.40;;;14.70;1.00;;;;;;5065498;28;20963;-54
2023/05/16 11:39:20;;;;;;;7.57;6.80;;;14.80;1.00;;;;;;5071535;28;20454;-56
2023/05/16 11:41:46;;;;;;;9.10;6.60;;;14.80;1.00;;;;;;5066170;28;20189;-54
2023/05/16 11:44:12;;;;;;;8.33;7.00;;;15.30;1.00;;;;;;5069215;28;20492;-56
2023/05/16 11:46:41;;;;;;;6.83;6.13;;;15.70;1.00;;;;;;5070084;28;20199;-55
2023/05/16 11:49:10;;;;;;;6.67;6.10;;;15.90;1.00;;;;;;5066284;28;20948;-55
2023/05/16 11:51:40;;;;;;;7.27;6.57;;;16.20;1.00;;;;;;5073139;28;20446;-55
2023/05/16 11:54:08;;;;;;;6.63;6.00;;;16.30;1.00;;;;;;5063948;28;20485;-56
2023/05/16 11:56:35;;;;;;;6.83;6.20;;;16.50;1.00;;;;;;5064994;28;20473;-55
2023/05/16 11:59:01;;;;;;;9.37;7.27;;;16.60;1.00;;;;;;5067078;28;20526;-55
2023/05/16 12:01:35;;;;;;;7.33;6.57;;;16.60;1.00;;;;;;5075585;28;20460;-54
2023/05/16 12:04:01;;;;;;;9.40;7.43;;;16.50;1.00;;;;;;5072270;28;20864;-55
2023/05/16 12:06:28;;;;;;;7.10;6.40;;;16.30;1.00;;;;;;5072923;28;20458;-55
2023/05/16 12:08:54;;;;;;;6.97;6.37;;;16.30;1.00;;;;;;5066419;28;20176;-56
2023/05/16 12:11:21;;;;;;;7.30;6.20;;;16.30;1.00;;;;;;5066799;28;20445;-55
2023/05/16 12:13:47;;;;;;;7.23;6.50;;;16.50;1.00;;;;;;5071608;28;20214;-55
2023/05/16 12:16:13;;;;;;;6.63;6.03;;;16.80;1.00;;;;;;5072859;28;20457;-58
2023/05/16 12:18:39;;;;;;;7.40;6.77;;;17.10;99.90;;;;;;5075877;28;20446;-56
2023/05/16 12:21:05;;;;;;;5.87;5.33;;;17.10;99.90;;;;;;5067413;28;20442;-56
2023/05/16 12:23:34;;;;;;;9.37;6.20;;;17.10;99.90;;;;;;5079810;28;21080;-55
2023/05/16 12:26:05;;;;;;;6.63;5.87;;;17.10;99.90;;;;;;5073383;28;20188;-56
2023/05/16 12:28:37;;;;;;;6.80;6.20;;;17.00;99.90;;;;;;5078198;28;21031;-55
2023/05/16 12:31:10;;;;;;;5.90;5.40;;;17.00;99.90;;;;;;5070596;28;20998;-54
2023/05/16 12:33:37;;;;;;;6.90;5.30;;;17.00;99.90;;;;;;5067752;28;20469;-58
2023/05/16 12:36:03;;;;;;;8.77;6.30;;;16.80;99.90;;;;;;5069258;28;20450;-55
2023/05/16 12:38:29;;;;;;;5.90;5.30;;;16.80;99.90;;;;;;5076329;28;20472;-56
2023/05/16 12:40:58;;;;;;;8.83;8.03;;;16.90;99.90;;;;;;5072854;28;20450;-56